createdAt,value
2017-12-20T00:00:16.385Z,96524.97
2017-12-20T00:02:44.779Z,96528.99
2017-12-20T00:05:12.396Z,96528.55
2017-12-20T00:07:40.043Z,96520.39
2017-12-20T00:10:07.686Z,96534.80
2017-12-20T00:12:35.342Z,96524.01
2017-12-20T00:15:03.041Z,96529.46
2017-12-20T00:17:30.900Z,96535.09
2017-12-20T00:19:58.565Z,96538.38
2017-12-20T00:22:26.185Z,96528.70
2017-12-20T00:24:53.855Z,96531.44
2017-12-20T00:27:21.492Z,96535.02
2017-12-20T00:29:49.318Z,96537.89
2017-12-20T00:32:17.164Z,96541.62
2017-12-20T00:34:44.723Z,96540.92
2017-12-20T00:37:12.380Z,96545.68
2017-12-20T00:39:40.556Z,96543.41
2017-12-20T00:42:08.183Z,96543.88
2017-12-20T00:44:35.744Z,96541.08
2017-12-20T00:47:03.365Z,96543.27
2017-12-20T00:49:30.984Z,96546.45
2017-12-20T00:51:58.623Z,96545.63
2017-12-20T00:54:26.304Z,96547.73
2017-12-20T00:56:53.891Z,96551.59
2017-12-20T00:59:22.263Z,96551.74
2017-12-20T01:01:49.907Z,96549.97
2017-12-20T01:04:17.501Z,96561.71
2017-12-20T01:06:45.140Z,96550.29
2017-12-20T01:09:13.628Z,96554.83
2017-12-20T01:11:41.297Z,96549.98
2017-12-20T01:14:09.013Z,96557.14
2017-12-20T01:16:36.613Z,96546.43
2017-12-20T01:19:04.480Z,96550.82
2017-12-20T01:21:32.703Z,96560.48
2017-12-20T01:24:00.603Z,96562.03
2017-12-20T01:26:28.420Z,96557.73
2017-12-20T01:28:56.654Z,96553.63
2017-12-20T01:31:24.459Z,96557.25
2017-12-20T01:33:52.077Z,96553.11
2017-12-20T01:36:19.683Z,96558.83
2017-12-20T01:38:47.840Z,96555.52
2017-12-20T01:41:15.681Z,96551.51
2017-12-20T01:43:43.294Z,96551.55
2017-12-20T01:46:11.518Z,96555.23
2017-12-20T01:48:39.363Z,96556.51
2017-12-20T01:51:06.980Z,96554.70
2017-12-20T01:53:34.559Z,96550.16
2017-12-20T01:56:02.212Z,96546.44
2017-12-20T01:58:29.826Z,96547.37
2017-12-20T02:00:57.462Z,96556.64
2017-12-20T02:03:25.007Z,96556.48
2017-12-20T02:05:52.944Z,96554.19
2017-12-20T02:08:20.578Z,96551.89
2017-12-20T02:10:48.348Z,96551.73
2017-12-20T02:13:15.933Z,96547.69
2017-12-20T02:15:43.662Z,96557.14
2017-12-20T02:18:11.252Z,96558.03
2017-12-20T02:20:39.234Z,96557.24
2017-12-20T02:23:06.852Z,96548.69
2017-12-20T02:25:34.471Z,96555.80
2017-12-20T02:28:02.319Z,96553.80
2017-12-20T02:30:29.956Z,96547.28
2017-12-20T02:32:57.542Z,96549.06
2017-12-20T02:35:25.364Z,96557.77
2017-12-20T02:37:52.981Z,96556.78
2017-12-20T02:40:20.644Z,96543.98
2017-12-20T02:42:50.094Z,96544.62
2017-12-20T02:45:18.636Z,96546.03
2017-12-20T02:47:46.272Z,96554.93
2017-12-20T02:50:13.935Z,96550.19
2017-12-20T02:52:42.058Z,96550.77
2017-12-20T02:55:09.739Z,96549.44
2017-12-20T02:57:37.992Z,96553.00
2017-12-20T03:00:07.208Z,96547.66
2017-12-20T03:02:35.027Z,96556.19
2017-12-20T03:05:02.871Z,96545.64
2017-12-20T03:07:30.469Z,96541.59
2017-12-20T03:09:58.132Z,96546.58
2017-12-20T03:12:25.729Z,96554.28
2017-12-20T03:14:54.092Z,96549.14
2017-12-20T03:17:22.765Z,96547.19
2017-12-20T03:19:50.555Z,96545.34
2017-12-20T03:22:19.051Z,96545.36
2017-12-20T03:24:46.849Z,96537.31
2017-12-20T03:27:14.575Z,96538.66
2017-12-20T03:29:42.188Z,96540.19
2017-12-20T03:32:09.880Z,96542.63
2017-12-20T03:34:38.303Z,96546.38
2017-12-20T03:37:05.905Z,96546.45
2017-12-20T03:39:33.609Z,96549.60
2017-12-20T03:42:01.723Z,96540.22
2017-12-20T03:44:29.495Z,96542.17
2017-12-20T03:46:57.838Z,96546.42
2017-12-20T03:49:25.439Z,96540.67
2017-12-20T03:51:53.084Z,96541.84
2017-12-20T03:54:20.712Z,96540.02
2017-12-20T03:56:49.223Z,96539.58
2017-12-20T03:59:17.050Z,96535.12
2017-12-20T04:01:45.236Z,96532.86
2017-12-20T04:04:13.105Z,96530.02
2017-12-20T04:06:40.809Z,96532.67
2017-12-20T04:09:08.469Z,96532.61
2017-12-20T04:11:36.267Z,96531.89
2017-12-20T04:14:04.728Z,96538.02
2017-12-20T04:16:32.545Z,96537.10
2017-12-20T04:19:00.411Z,96543.09
2017-12-20T04:21:29.325Z,96541.50
2017-12-20T04:23:57.162Z,96548.01
2017-12-20T04:26:24.765Z,96546.38
2017-12-20T04:28:52.379Z,96551.09
2017-12-20T04:31:21.466Z,96553.37
2017-12-20T04:33:49.102Z,96558.57
2017-12-20T04:36:16.683Z,96561.20
2017-12-20T04:52:14.015Z,96568.81
2017-12-20T04:54:41.648Z,96578.16
2017-12-20T04:57:09.227Z,96573.87
2017-12-20T04:59:36.962Z,96569.00
2017-12-20T05:02:04.645Z,96579.37
2017-12-20T05:04:32.198Z,96577.81
2017-12-20T05:06:59.864Z,96590.22
2017-12-20T05:09:28.587Z,96590.76
2017-12-20T05:11:56.272Z,96602.75
2017-12-20T05:14:24.151Z,96599.14
2017-12-20T05:16:51.759Z,96602.07
2017-12-20T05:19:19.667Z,96603.25
2017-12-20T05:21:47.499Z,96598.55
2017-12-20T05:24:15.770Z,96599.00
2017-12-20T05:26:43.425Z,96601.95
2017-12-20T05:29:11.194Z,96602.63
2017-12-20T05:31:38.859Z,96608.02
2017-12-20T05:34:06.683Z,96606.67
2017-12-20T05:36:34.223Z,96617.20
2017-12-20T05:39:02.879Z,96621.05
2017-12-20T05:41:30.649Z,96608.33
2017-12-20T05:43:58.234Z,96607.33
2017-12-20T05:46:26.086Z,96612.49
2017-12-20T05:48:53.924Z,96616.21
2017-12-20T05:51:21.452Z,96613.61
2017-12-20T05:53:49.070Z,96610.06
2017-12-20T05:56:16.846Z,96618.89
2017-12-20T05:58:44.682Z,96615.34
2017-12-20T06:01:12.354Z,96619.26
2017-12-20T06:03:39.878Z,96618.52
2017-12-20T06:06:07.459Z,96627.69
2017-12-20T06:08:35.070Z,96622.56
2017-12-20T06:11:02.672Z,96623.00
2017-12-20T06:13:30.252Z,96618.66
2017-12-20T06:15:57.806Z,96620.16
2017-12-20T06:18:25.405Z,96629.69
2017-12-20T06:20:53.342Z,96626.11
2017-12-20T06:23:20.946Z,96622.67
2017-12-20T06:25:48.533Z,96626.13
2017-12-20T06:28:16.120Z,96622.13
2017-12-20T06:30:43.924Z,96628.36
2017-12-20T06:33:11.590Z,96635.77
2017-12-20T06:35:39.693Z,96637.42
2017-12-20T06:38:07.969Z,96633.80
2017-12-20T06:40:35.778Z,96585.28
2017-12-20T06:43:03.603Z,96628.30
2017-12-20T06:45:31.875Z,96633.77
2017-12-20T06:48:00.461Z,96640.44
2017-12-20T06:50:28.046Z,96628.89
2017-12-20T06:52:56.173Z,96629.28
2017-12-20T06:55:23.920Z,96631.22
2017-12-20T06:57:51.507Z,96632.80
2017-12-20T07:00:19.454Z,96632.87
2017-12-20T07:02:47.026Z,96632.40
2017-12-20T07:05:14.784Z,96636.28
2017-12-20T07:07:42.413Z,96630.99
2017-12-20T07:10:10.238Z,96638.48
2017-12-20T07:12:37.743Z,96634.48
2017-12-20T07:15:05.659Z,96645.26
2017-12-20T07:17:33.230Z,96640.57
2017-12-20T07:20:00.838Z,96641.79
2017-12-20T07:22:28.601Z,96647.48
2017-12-20T07:24:56.194Z,96642.27
2017-12-20T07:27:24.027Z,96651.36
2017-12-20T07:29:51.629Z,96656.09
2017-12-20T07:32:19.219Z,96661.86
2017-12-20T07:34:46.815Z,96665.96
2017-12-20T07:37:14.398Z,96663.41
2017-12-20T07:39:42.933Z,96672.84
2017-12-20T07:42:11.360Z,96673.47
2017-12-20T07:44:38.935Z,96670.18
2017-12-20T07:47:06.598Z,96669.84
2017-12-20T07:49:34.208Z,96677.91
2017-12-20T07:52:02.029Z,96672.13
2017-12-20T07:54:30.250Z,96675.08
2017-12-20T07:56:58.027Z,96683.28
2017-12-20T07:59:25.611Z,96680.75
2017-12-20T08:01:53.180Z,96694.34
2017-12-20T08:04:20.946Z,96685.99
2017-12-20T08:06:49.163Z,96685.62
2017-12-20T08:09:16.940Z,96680.87
2017-12-20T08:11:44.743Z,96691.42
2017-12-20T08:14:12.526Z,96692.23
2017-12-20T08:16:40.783Z,96693.64
2017-12-20T08:19:08.592Z,96700.05
2017-12-20T08:21:37.595Z,96701.09
2017-12-20T08:24:05.418Z,96699.84
2017-12-20T08:26:33.052Z,96705.48
2017-12-20T08:29:00.822Z,96704.16
2017-12-20T08:31:28.447Z,96703.66
2017-12-20T08:33:56.076Z,96698.47
2017-12-20T08:36:23.710Z,96711.55
2017-12-20T08:38:52.237Z,96706.58
2017-12-20T08:41:19.816Z,96712.41
2017-12-20T08:43:47.371Z,96711.31
2017-12-20T08:46:14.966Z,96710.14
2017-12-20T08:48:42.756Z,96709.64
2017-12-20T08:51:10.536Z,96712.98
2017-12-20T08:53:38.317Z,96715.36
2017-12-20T08:56:05.863Z,96713.82
2017-12-20T08:58:33.858Z,96707.56
2017-12-20T09:01:01.658Z,96707.49
2017-12-20T09:03:29.239Z,96707.66
2017-12-20T09:05:56.993Z,96709.08
2017-12-20T09:08:24.619Z,96704.61
2017-12-20T09:10:52.976Z,96704.79
2017-12-20T09:13:20.743Z,96700.33
2017-12-20T09:15:48.537Z,96705.16
2017-12-20T09:18:16.111Z,96698.23
2017-12-20T09:20:44.219Z,96693.53
2017-12-20T09:23:11.864Z,96693.36
2017-12-20T09:25:40.194Z,96687.20
2017-12-20T09:28:08.028Z,96686.05
2017-12-20T09:30:35.866Z,96693.98
2017-12-20T09:33:03.741Z,96692.72
2017-12-20T09:35:31.547Z,96684.41
2017-12-20T09:37:59.330Z,96679.65
2017-12-20T09:40:27.778Z,96674.89
2017-12-20T09:42:55.453Z,96674.06
2017-12-20T09:45:23.275Z,96664.74
2017-12-20T09:47:51.018Z,96674.80
2017-12-20T09:50:18.581Z,96665.14
2017-12-20T09:52:47.099Z,96668.73
2017-12-20T09:55:14.665Z,96669.33
2017-12-20T09:57:42.321Z,96663.19
2017-12-20T10:00:10.626Z,96658.56
2017-12-20T10:02:38.204Z,96666.43
2017-12-20T10:05:05.796Z,96669.42
2017-12-20T10:07:33.383Z,96663.55
2017-12-20T10:10:00.976Z,96674.93
2017-12-20T10:12:28.523Z,96656.23
2017-12-20T10:14:56.152Z,96662.05
2017-12-20T10:17:24.373Z,96664.11
2017-12-20T10:19:51.979Z,96658.98
2017-12-20T10:22:20.442Z,96659.61
2017-12-20T10:24:48.060Z,96653.69
2017-12-20T10:27:16.602Z,96656.91
2017-12-20T10:29:45.150Z,96645.30
2017-12-20T10:32:12.751Z,96656.20
2017-12-20T10:34:40.660Z,96648.73
2017-12-20T10:37:08.190Z,96650.23
2017-12-20T10:39:35.841Z,96646.28
2017-12-20T10:42:04.289Z,96642.05
2017-12-20T10:44:31.874Z,96645.48
2017-12-20T10:46:59.520Z,96643.97
2017-12-20T10:49:27.152Z,96637.14
2017-12-20T10:51:55.008Z,96621.02
2017-12-20T10:54:23.182Z,96618.06
2017-12-20T10:56:52.116Z,96629.59
2017-12-20T10:59:19.791Z,96624.30
2017-12-20T11:01:47.494Z,96613.66
2017-12-20T11:04:15.066Z,96612.34
2017-12-20T11:06:43.342Z,96622.61
2017-12-20T11:09:10.978Z,96612.48
2017-12-20T11:11:39.094Z,96619.02
2017-12-20T11:14:07.018Z,96611.70
2017-12-20T11:16:35.513Z,96616.73
2017-12-20T11:19:03.115Z,96612.03
2017-12-20T11:21:30.908Z,96604.01
2017-12-20T11:23:58.520Z,96610.82
2017-12-20T11:26:26.134Z,96613.43
2017-12-20T11:28:54.642Z,96610.44
2017-12-20T11:31:24.211Z,96607.81
2017-12-20T11:33:51.960Z,96609.87
2017-12-20T11:36:19.554Z,96596.02
2017-12-20T11:38:47.372Z,96603.40
2017-12-20T11:41:15.013Z,96595.72
2017-12-20T11:43:42.618Z,96594.31
2017-12-20T11:46:10.250Z,96599.97
2017-12-20T11:48:37.825Z,96596.00
2017-12-20T11:51:05.387Z,96602.98
2017-12-20T11:53:33.010Z,96590.16
2017-12-20T11:56:00.594Z,96590.95
2017-12-20T11:58:28.273Z,96592.12
2017-12-20T12:00:55.876Z,96586.50
2017-12-20T12:03:23.461Z,96583.64
2017-12-20T12:05:52.055Z,96581.59
2017-12-20T12:08:19.653Z,96587.09
2017-12-20T12:10:47.249Z,96580.98
2017-12-20T12:13:14.864Z,96574.73
2017-12-20T12:15:42.499Z,96581.48
2017-12-20T12:18:10.366Z,96573.13
2017-12-20T12:20:38.367Z,96575.86
2017-12-20T12:23:06.039Z,96575.90
2017-12-20T12:25:33.801Z,96579.48
2017-12-20T12:28:02.782Z,96581.52
2017-12-20T12:30:30.410Z,96583.77
2017-12-20T12:32:58.202Z,96574.24
2017-12-20T12:35:26.177Z,96578.56
2017-12-20T12:37:53.810Z,96575.98
2017-12-20T12:40:21.573Z,96574.25
2017-12-20T12:42:49.328Z,96572.27
2017-12-20T12:45:17.242Z,96572.17
2017-12-20T12:47:44.887Z,96567.80
2017-12-20T12:50:12.671Z,96567.05
2017-12-20T12:52:41.180Z,96571.08
2017-12-20T12:55:09.903Z,96571.62
2017-12-20T12:57:39.408Z,96569.70
2017-12-20T13:00:07.773Z,96569.33
2017-12-20T13:02:35.650Z,96575.28
2017-12-20T13:05:03.471Z,96573.43
2017-12-20T13:07:31.611Z,96567.73
2017-12-20T13:09:59.278Z,96566.59
2017-12-20T13:12:26.962Z,96583.98
2017-12-20T13:14:54.545Z,96564.08
2017-12-20T13:17:22.620Z,96567.19
2017-12-20T13:19:50.222Z,96575.61
2017-12-20T13:22:17.910Z,96571.94
2017-12-20T13:24:45.763Z,96578.25
2017-12-20T13:27:13.341Z,96578.69
2017-12-20T13:29:42.203Z,96580.36
2017-12-20T13:32:10.606Z,96577.44
2017-12-20T13:34:38.465Z,96572.80
2017-12-20T13:37:08.650Z,96575.92
2017-12-20T13:39:36.420Z,96581.04
2017-12-20T13:42:04.186Z,96587.45
2017-12-20T13:44:31.968Z,96586.36
2017-12-20T13:46:59.866Z,96578.77
2017-12-20T13:49:27.493Z,96568.66
2017-12-20T13:51:55.069Z,96576.95
2017-12-20T13:54:22.785Z,96567.33
2017-12-20T13:56:50.995Z,96568.42
2017-12-20T13:59:18.639Z,96577.73
2017-12-20T14:01:46.436Z,96578.76
2017-12-20T14:04:14.177Z,96579.67
2017-12-20T14:06:42.007Z,96575.02
2017-12-20T14:09:09.764Z,96578.02
2017-12-20T14:11:38.860Z,96579.52
2017-12-20T14:14:07.440Z,96581.94
2017-12-20T14:16:35.906Z,96578.90
2017-12-20T14:19:03.923Z,96579.01
2017-12-20T14:21:32.292Z,96582.64
2017-12-20T14:24:00.304Z,96585.25
2017-12-20T14:26:27.891Z,96580.72
2017-12-20T14:28:55.724Z,96581.19
2017-12-20T14:31:23.700Z,96577.93
2017-12-20T14:33:51.430Z,96580.61
2017-12-20T14:36:20.048Z,96592.65
2017-12-20T14:38:47.684Z,96594.56
2017-12-20T14:41:15.458Z,96595.02
2017-12-20T14:43:43.167Z,96592.42
2017-12-20T14:46:11.197Z,96590.11
2017-12-20T14:48:39.262Z,96593.09
2017-12-20T14:51:07.459Z,96594.87
2017-12-20T14:53:35.792Z,96599.16
2017-12-20T14:56:03.399Z,96602.06
2017-12-20T14:58:31.055Z,96599.92
2017-12-20T15:00:58.742Z,96594.05
2017-12-20T15:03:26.664Z,96612.02
2017-12-20T15:05:54.471Z,96610.34
2017-12-20T15:08:22.105Z,96614.02
2017-12-20T15:10:50.489Z,96621.20
2017-12-20T15:13:18.283Z,96624.99
2017-12-20T15:15:46.832Z,96628.42
2017-12-20T15:18:14.483Z,96622.02
2017-12-20T15:20:42.566Z,96630.40
2017-12-20T15:23:11.520Z,96629.98
2017-12-20T15:25:39.220Z,96635.15
2017-12-20T15:28:06.938Z,96631.78
2017-12-20T15:30:34.622Z,96632.75
2017-12-20T15:33:02.817Z,96633.25
2017-12-20T15:35:30.428Z,96630.36
2017-12-20T15:37:58.050Z,96635.80
2017-12-20T15:40:26.655Z,96637.06
2017-12-20T15:42:54.225Z,96641.85
2017-12-20T15:45:22.809Z,96640.28
2017-12-20T15:47:50.664Z,96655.98
2017-12-20T15:50:18.659Z,96650.61
2017-12-20T15:52:47.114Z,96645.75
2017-12-20T15:55:14.746Z,96654.27
2017-12-20T15:57:42.659Z,96650.41
2017-12-20T16:00:10.382Z,96654.23
2017-12-20T16:02:38.369Z,96649.75
2017-12-20T16:05:06.004Z,96653.11
2017-12-20T16:07:33.704Z,96655.34
2017-12-20T16:10:01.307Z,96661.72
2017-12-20T16:12:29.706Z,96663.70
2017-12-20T16:14:59.767Z,96660.20
2017-12-20T16:17:27.858Z,96665.86
2017-12-20T16:19:55.478Z,96663.17
2017-12-20T16:22:23.863Z,96662.82
2017-12-20T16:31:30.025Z,96668.28
2017-12-20T16:33:57.674Z,96671.84
2017-12-20T16:36:25.293Z,96672.42
2017-12-20T16:38:53.169Z,96683.35
2017-12-20T16:41:20.817Z,96680.52
2017-12-20T16:43:49.575Z,96683.45
2017-12-20T16:46:17.169Z,96693.73
2017-12-20T16:48:45.714Z,96682.59
2017-12-20T16:51:13.641Z,96692.20
2017-12-20T16:53:42.209Z,96687.13
2017-12-20T16:56:10.287Z,96688.06
2017-12-20T16:58:37.880Z,96689.02
2017-12-20T17:01:05.576Z,96699.75
2017-12-20T17:03:33.324Z,96697.70
2017-12-20T17:06:00.899Z,96705.61
2017-12-20T17:08:29.807Z,96702.80
2017-12-20T17:10:57.363Z,96711.58
2017-12-20T17:13:24.967Z,96701.15
2017-12-20T17:15:52.595Z,96686.91
2017-12-20T17:18:21.132Z,96697.08
2017-12-20T17:20:48.697Z,96688.53
2017-12-20T17:23:16.270Z,96699.08
2017-12-20T17:25:43.825Z,96701.36
2017-12-20T17:28:13.200Z,96703.47
2017-12-20T17:30:41.202Z,96694.59
2017-12-20T17:33:09.651Z,96709.79
2017-12-20T17:35:37.256Z,96709.55
2017-12-20T17:38:04.919Z,96704.23
2017-12-20T17:40:33.718Z,96717.62
2017-12-20T17:43:01.467Z,96708.56
2017-12-20T17:45:29.144Z,96709.77
2017-12-20T17:47:57.192Z,96705.42
2017-12-20T17:50:25.323Z,96703.61
2017-12-20T17:52:52.910Z,96714.69
2017-12-20T17:55:22.076Z,96699.66
2017-12-20T17:57:50.067Z,96701.39
2017-12-20T18:00:19.748Z,96707.89
2017-12-20T18:02:47.318Z,96709.58
2017-12-20T18:05:14.987Z,96705.86
2017-12-20T18:07:42.602Z,96703.40
2017-12-20T18:10:11.141Z,96705.52
2017-12-20T18:12:40.409Z,96705.01
2017-12-20T18:15:08.006Z,96712.41
2017-12-20T18:17:35.646Z,96711.55
2017-12-20T18:20:03.577Z,96724.97
2017-12-20T18:22:33.088Z,96717.89
2017-12-20T18:25:00.787Z,96713.75
2017-12-20T18:27:29.664Z,96709.24
2017-12-20T18:29:59.030Z,96716.18
2017-12-20T18:32:28.683Z,96716.41
2017-12-20T18:34:57.598Z,96707.56
2017-12-20T18:37:25.608Z,96716.19
2017-12-20T18:39:53.318Z,96706.06
2017-12-20T18:42:21.081Z,96707.56
2017-12-20T18:44:48.732Z,96695.38
2017-12-20T18:47:16.356Z,96695.16
2017-12-20T18:49:43.993Z,96702.34
2017-12-20T18:52:11.646Z,96690.20
2017-12-20T18:54:39.331Z,96688.83
2017-12-20T18:57:07.713Z,96698.21
2017-12-20T18:59:35.723Z,96689.50
2017-12-20T19:02:04.923Z,96693.80
2017-12-20T19:04:32.668Z,96696.23
2017-12-20T19:07:00.420Z,96691.83
2017-12-20T19:09:28.497Z,96695.50
2017-12-20T19:11:58.492Z,96697.23
2017-12-20T19:14:34.162Z,96702.83
2017-12-20T19:17:01.854Z,96704.44
2017-12-20T19:19:29.592Z,96708.45
2017-12-20T19:21:57.543Z,96707.73
2017-12-20T19:24:27.022Z,96706.13
2017-12-20T19:26:55.955Z,96704.97
2017-12-20T19:29:24.209Z,96699.52
2017-12-20T19:31:52.172Z,96695.36
2017-12-20T19:34:19.784Z,96683.16
2017-12-20T19:36:48.278Z,96695.63
2017-12-20T19:39:15.997Z,96691.97
2017-12-20T19:41:43.621Z,96685.20
2017-12-20T19:44:11.811Z,96693.55
2017-12-20T19:46:39.852Z,96691.09
2017-12-20T19:49:07.689Z,96687.48
2017-12-20T19:51:35.798Z,96686.84
2017-12-20T19:54:03.476Z,96679.99
2017-12-20T19:56:31.151Z,96682.39
2017-12-20T19:58:58.807Z,96684.36
2017-12-20T20:01:26.517Z,96683.97
2017-12-20T20:03:54.120Z,96679.84
2017-12-20T20:06:23.010Z,96683.03
2017-12-20T20:08:50.676Z,96673.13
2017-12-20T20:11:18.480Z,96662.44
2017-12-20T20:13:46.149Z,96680.25
2017-12-20T20:16:17.625Z,96680.75
2017-12-20T20:18:47.348Z,96681.48
2017-12-20T20:21:20.753Z,96674.62
2017-12-20T20:23:48.692Z,96676.50
2017-12-20T20:26:16.663Z,96687.22
2017-12-20T20:28:44.501Z,96682.62
2017-12-20T20:31:13.875Z,96689.80
2017-12-20T20:33:41.481Z,96686.92
2017-12-20T20:36:09.824Z,96683.89
2017-12-20T20:38:38.212Z,96684.80
2017-12-20T20:41:05.887Z,96683.67
2017-12-20T20:43:33.548Z,96683.05
2017-12-20T20:46:01.248Z,96683.81
2017-12-20T20:48:28.974Z,96679.03
2017-12-20T20:50:56.735Z,96682.52
2017-12-20T20:53:24.456Z,96690.78
2017-12-20T20:55:52.155Z,96689.91
2017-12-20T20:58:19.922Z,96691.28
2017-12-20T21:00:48.359Z,96690.72
2017-12-20T21:03:16.879Z,96690.88
2017-12-20T21:05:45.260Z,96686.29
2017-12-20T21:08:13.645Z,96690.91
2017-12-20T21:10:41.281Z,96687.70
2017-12-20T21:13:08.914Z,96689.06
2017-12-20T21:15:37.401Z,96679.03
2017-12-20T21:18:08.898Z,96684.38
2017-12-20T21:20:36.913Z,96685.48
2017-12-20T21:23:05.556Z,96686.41
2017-12-20T21:25:33.239Z,96680.09
2017-12-20T21:28:01.053Z,96678.20
2017-12-20T21:30:28.855Z,96687.77
2017-12-20T21:32:57.049Z,96684.30
2017-12-20T21:35:25.654Z,96688.92
2017-12-20T21:37:53.434Z,96689.70
2017-12-20T21:40:21.052Z,96679.16
2017-12-20T21:42:48.891Z,96687.81
2017-12-20T21:45:17.078Z,96685.30
2017-12-20T21:47:44.873Z,96682.64
2017-12-20T21:50:12.960Z,96675.98
2017-12-20T21:52:40.950Z,96669.95
2017-12-20T21:55:08.676Z,96674.16
2017-12-20T21:57:37.095Z,96678.97
2017-12-20T22:00:16.587Z,96679.45
2017-12-20T22:02:44.616Z,96681.80
2017-12-20T22:05:16.201Z,96686.17
2017-12-20T22:07:44.547Z,96685.93
2017-12-20T22:10:12.447Z,96686.19
2017-12-20T22:12:40.330Z,96683.97
2017-12-20T22:15:08.198Z,96686.72
2017-12-20T22:17:35.864Z,96691.59
2017-12-20T22:20:22.183Z,96684.56
2017-12-20T22:22:51.558Z,96683.16
2017-12-20T22:25:19.376Z,96678.48
2017-12-20T22:27:48.391Z,96674.42
2017-12-20T22:30:16.796Z,96678.56
2017-12-20T22:32:45.254Z,96676.13
2017-12-20T22:35:12.906Z,96678.30
2017-12-20T22:37:40.598Z,96676.15
2017-12-20T22:40:09.969Z,96680.49
2017-12-20T22:42:37.676Z,96680.41
2017-12-20T22:45:23.335Z,96678.78
2017-12-20T22:47:51.904Z,96694.59
2017-12-20T22:50:19.574Z,96684.17
2017-12-20T22:52:47.316Z,96690.23
2017-12-20T22:55:14.983Z,96688.17
2017-12-20T22:57:42.705Z,96695.88
2017-12-20T23:00:10.665Z,96703.67
2017-12-20T23:02:38.299Z,96698.39
2017-12-20T23:05:06.347Z,96701.02
2017-12-20T23:07:34.901Z,96705.00
2017-12-20T23:10:02.551Z,96700.37
2017-12-20T23:12:30.406Z,96692.05
2017-12-20T23:14:58.725Z,96690.06
2017-12-20T23:17:26.781Z,96698.26
2017-12-20T23:19:54.400Z,96700.11
2017-12-20T23:22:22.172Z,96702.86
2017-12-20T23:24:49.954Z,96698.60
2017-12-20T23:27:18.425Z,96696.06
2017-12-20T23:29:46.109Z,96691.49
2017-12-20T23:32:13.863Z,96696.78
2017-12-20T23:34:41.638Z,96700.69
2017-12-20T23:37:10.193Z,96693.34
2017-12-20T23:39:39.347Z,96703.58
2017-12-20T23:42:07.074Z,96701.27
2017-12-20T23:44:34.702Z,96689.25
2017-12-20T23:47:02.446Z,96696.47
2017-12-20T23:49:30.095Z,96695.42
2017-12-20T23:51:57.759Z,96692.34
2017-12-20T23:54:25.453Z,96686.91
2017-12-20T23:56:53.187Z,96696.55
2017-12-20T23:59:20.875Z,96693.55
